createdAt,value
2023-04-15T00:00:29.116Z,56.70
2023-04-15T00:03:30.871Z,56.38
2023-04-15T00:06:32.548Z,56.51
2023-04-15T00:09:34.035Z,56.73
2023-04-15T00:12:35.559Z,56.66
2023-04-15T00:15:37.631Z,57.00
2023-04-15T00:18:39.223Z,57.04
2023-04-15T00:21:40.749Z,56.70
2023-04-15T00:24:42.995Z,57.00
2023-04-15T00:27:44.512Z,56.87
2023-04-15T00:30:46.311Z,56.65
2023-04-15T00:33:48.706Z,56.42
2023-04-15T00:36:53.602Z,56.76
2023-04-15T00:39:55.676Z,56.38
2023-04-15T00:42:57.719Z,56.14
2023-04-15T00:46:00.943Z,56.24
2023-04-15T00:49:04.087Z,56.13
2023-04-15T00:52:05.708Z,56.24
2023-04-15T00:55:08.119Z,56.16
2023-04-15T00:58:09.736Z,56.00
2023-04-15T01:01:11.451Z,55.73
2023-04-15T01:04:13.157Z,55.80
2023-04-15T01:07:15.105Z,56.06
2023-04-15T01:10:16.637Z,55.97
2023-04-15T01:13:18.144Z,56.09
2023-04-15T01:16:20.166Z,55.99
2023-04-15T01:19:22.019Z,56.13
2023-04-15T01:22:26.720Z,55.85
2023-04-15T01:25:33.205Z,55.90
2023-04-15T01:28:36.184Z,55.92
2023-04-15T01:31:39.434Z,56.15
2023-04-15T01:34:40.964Z,56.12
2023-04-15T01:37:42.627Z,56.08
2023-04-15T01:40:44.964Z,55.92
2023-04-15T01:43:46.708Z,56.28
2023-04-15T01:46:48.389Z,55.87
2023-04-15T01:49:49.889Z,55.78
2023-04-15T01:52:51.380Z,55.69
2023-04-15T01:55:53.210Z,55.26
2023-04-15T01:58:54.683Z,55.55
2023-04-15T02:01:56.191Z,55.34
2023-04-15T02:04:58.039Z,55.57
2023-04-15T02:07:59.500Z,54.75
2023-04-15T02:11:01.290Z,55.10
2023-04-15T02:14:06.851Z,55.34
2023-04-15T02:17:08.490Z,55.69
2023-04-15T02:20:10.690Z,56.00
2023-04-15T02:23:12.321Z,55.95
2023-04-15T02:26:14.190Z,56.09
2023-04-15T02:29:15.848Z,56.18
2023-04-15T02:32:17.585Z,56.15
2023-04-15T02:35:19.853Z,55.74
2023-04-15T02:38:21.390Z,56.16
2023-04-15T02:41:27.131Z,55.91
2023-04-15T02:44:28.685Z,56.32
2023-04-15T02:47:37.566Z,55.88
2023-04-15T02:50:40.899Z,55.76
2023-04-15T02:53:44.306Z,56.59
2023-04-15T02:56:45.724Z,55.82
2023-04-15T02:59:47.287Z,55.47
2023-04-15T03:02:52.461Z,56.24
2023-04-15T03:05:54.319Z,55.95
2023-04-15T03:08:56.908Z,55.56
2023-04-15T03:11:58.540Z,55.54
2023-04-15T03:15:01.998Z,55.69
2023-04-15T03:18:09.675Z,55.24
2023-04-15T03:21:11.222Z,54.88
2023-04-15T03:24:13.785Z,55.25
2023-04-15T03:27:15.322Z,55.28
2023-04-15T03:30:17.356Z,54.82
2023-04-15T03:33:18.935Z,55.56
2023-04-15T03:36:20.650Z,55.58
2023-04-15T03:39:22.111Z,55.31
2023-04-15T03:42:23.878Z,55.39
2023-04-15T03:45:25.842Z,55.50
2023-04-15T03:48:27.424Z,55.66
2023-04-15T03:51:28.912Z,55.53
2023-04-15T03:54:30.440Z,55.95
2023-04-15T03:57:31.993Z,55.46
2023-04-15T04:00:33.545Z,55.57
2023-04-15T04:03:35.254Z,55.41
2023-04-15T04:06:36.949Z,55.84
2023-04-15T04:09:40.579Z,55.69
2023-04-15T04:12:42.107Z,55.80
2023-04-15T04:15:43.633Z,56.22
2023-04-15T04:18:45.365Z,56.42
2023-04-15T04:21:46.789Z,55.82
2023-04-15T04:24:48.259Z,55.83
2023-04-15T04:27:49.901Z,56.48
2023-04-15T04:30:51.786Z,56.27
2023-04-15T04:33:53.337Z,56.02
2023-04-15T04:36:54.852Z,56.01
2023-04-15T04:39:56.609Z,55.79
2023-04-15T04:42:58.204Z,55.95
2023-04-15T04:45:59.843Z,55.83
2023-04-15T04:49:01.709Z,56.20
2023-04-15T04:52:03.477Z,56.31
2023-04-15T04:55:05.674Z,56.59
2023-04-15T04:58:07.146Z,56.01
2023-04-15T05:01:09.114Z,55.93
2023-04-15T05:04:10.877Z,56.31
2023-04-15T05:07:12.651Z,56.33
2023-04-15T05:10:15.278Z,55.79
2023-04-15T05:13:16.825Z,56.22
2023-04-15T05:16:20.000Z,56.08
2023-04-15T05:19:21.579Z,55.72
2023-04-15T05:22:23.113Z,55.60
2023-04-15T05:25:24.675Z,55.52
2023-04-15T05:28:26.082Z,55.70
2023-04-15T05:31:27.709Z,55.71
2023-04-15T05:34:29.273Z,55.43
2023-04-15T05:37:30.864Z,55.23
2023-04-15T05:40:32.410Z,55.32
2023-04-15T05:43:33.874Z,55.17
2023-04-15T05:46:35.464Z,55.38
2023-04-15T05:49:37.113Z,55.29
2023-04-15T05:52:38.893Z,55.25
2023-04-15T05:55:40.372Z,54.33
2023-04-15T05:58:42.219Z,54.49
2023-04-15T06:01:43.996Z,54.34
2023-04-15T06:04:45.491Z,54.10
2023-04-15T06:07:48.614Z,53.83
2023-04-15T06:10:50.499Z,54.26
2023-04-15T06:13:51.964Z,53.95
2023-04-15T06:16:53.445Z,53.42
2023-04-15T06:19:55.863Z,53.41
2023-04-15T06:22:57.603Z,52.56
2023-04-15T06:25:59.069Z,51.52
2023-04-15T06:29:00.977Z,50.52
2023-04-15T06:32:02.600Z,50.35
2023-04-15T06:35:04.324Z,49.75
2023-04-15T06:38:06.153Z,49.52
2023-04-15T06:41:07.923Z,49.64
2023-04-15T06:44:09.470Z,49.17
2023-04-15T06:47:13.154Z,49.31
2023-04-15T06:50:14.759Z,48.79
2023-04-15T06:53:16.331Z,48.79
2023-04-15T06:56:17.773Z,48.49
2023-04-15T06:59:19.210Z,48.09
2023-04-15T07:02:21.380Z,47.36
2023-04-15T07:05:23.201Z,47.23
2023-04-15T07:08:25.544Z,46.86
2023-04-15T07:11:27.307Z,46.88
2023-04-15T07:14:29.488Z,46.56
2023-04-15T07:17:31.067Z,46.52
2023-04-15T07:20:32.555Z,46.14
2023-04-15T07:23:34.006Z,46.07
2023-04-15T07:26:35.407Z,46.83
2023-04-15T07:29:36.891Z,46.74
2023-04-15T07:32:38.471Z,47.11
2023-04-15T07:35:40.072Z,46.82
2023-04-15T07:38:41.718Z,47.14
2023-04-15T07:41:43.490Z,46.28
2023-04-15T07:44:44.977Z,46.30
2023-04-15T07:47:46.979Z,46.50
2023-04-15T07:50:48.609Z,46.32
2023-04-15T07:53:50.542Z,46.25
2023-04-15T07:56:51.999Z,46.25
2023-04-15T07:59:53.459Z,45.99
2023-04-15T08:02:57.436Z,46.32
2023-04-15T08:05:59.281Z,46.31
2023-04-15T08:09:00.979Z,47.15
2023-04-15T08:12:03.738Z,46.97
2023-04-15T08:15:05.779Z,47.01
2023-04-15T08:18:07.304Z,46.93
2023-04-15T08:21:09.366Z,46.87
2023-04-15T08:24:11.565Z,46.52
2023-04-15T08:27:13.544Z,46.60
2023-04-15T08:30:15.400Z,46.71
2023-04-15T08:33:17.158Z,46.32
2023-04-15T08:36:20.829Z,46.21
2023-04-15T08:39:22.362Z,46.23
2023-04-15T08:42:31.296Z,46.17
2023-04-15T08:45:33.729Z,46.06
2023-04-15T08:48:39.396Z,46.09
2023-04-15T08:51:41.833Z,46.19
2023-04-15T08:54:43.318Z,45.82
2023-04-15T08:57:44.870Z,45.72
2023-04-15T09:00:46.605Z,45.49
2023-04-15T09:03:49.353Z,45.07
2023-04-15T09:06:52.250Z,45.20
2023-04-15T09:09:54.173Z,45.03
2023-04-15T09:12:56.493Z,44.85
2023-04-15T09:16:01.424Z,44.67
2023-04-15T09:19:20.709Z,44.80
2023-04-15T09:22:22.264Z,44.59
2023-04-15T09:25:34.774Z,44.48
2023-04-15T09:28:43.503Z,44.09
2023-04-15T09:31:45.012Z,44.52
2023-04-15T09:34:46.837Z,44.89
2023-04-15T09:37:49.574Z,44.51
2023-04-15T09:40:51.581Z,44.68
2023-04-15T09:43:53.424Z,44.66
2023-04-15T09:46:54.944Z,44.00
2023-04-15T09:49:57.835Z,44.35
2023-04-15T09:52:59.840Z,44.14
2023-04-15T09:56:02.447Z,44.12
2023-04-15T09:59:05.306Z,43.68
2023-04-15T10:02:07.630Z,43.13
2023-04-15T10:05:15.360Z,43.08
2023-04-15T10:08:22.339Z,42.53
2023-04-15T10:11:24.798Z,42.18
2023-04-15T10:14:28.527Z,42.12
2023-04-15T10:17:35.541Z,42.44
2023-04-15T10:20:38.310Z,42.60
2023-04-15T10:23:40.067Z,43.06
2023-04-15T10:26:42.480Z,42.62
2023-04-15T10:29:44.074Z,42.18
2023-04-15T10:32:46.111Z,41.76
2023-04-15T10:35:51.835Z,42.13
2023-04-15T10:38:53.302Z,42.57
2023-04-15T10:42:08.003Z,43.01
2023-04-15T10:45:17.960Z,42.71
2023-04-15T10:48:19.514Z,42.27
2023-04-15T10:51:28.455Z,42.01
2023-04-15T10:54:29.890Z,41.99
2023-04-15T10:57:37.492Z,41.22
2023-04-15T11:00:39.812Z,40.77
2023-04-15T11:03:43.656Z,40.80
2023-04-15T11:06:47.900Z,40.56
2023-04-15T11:09:49.479Z,41.52
2023-04-15T11:12:52.987Z,41.59
2023-04-15T11:15:58.842Z,42.05
2023-04-15T11:19:01.611Z,42.50
2023-04-15T11:22:09.122Z,42.87
2023-04-15T11:25:10.631Z,42.73
2023-04-15T11:28:13.220Z,42.98
2023-04-15T11:31:19.849Z,42.99
2023-04-15T11:34:24.191Z,43.12
2023-04-15T11:37:30.285Z,43.53
2023-04-15T11:40:33.475Z,43.49
2023-04-15T11:43:35.592Z,43.27
2023-04-15T11:46:37.224Z,43.19
2023-04-15T11:49:41.545Z,42.67
2023-04-15T11:53:01.519Z,42.29
2023-04-15T11:56:03.142Z,42.04
2023-04-15T11:59:04.663Z,41.58
2023-04-15T12:02:12.923Z,41.17
2023-04-15T12:05:14.530Z,41.34
2023-04-15T12:08:16.095Z,41.60
2023-04-15T12:11:17.729Z,41.69
2023-04-15T12:14:26.162Z,41.55
2023-04-15T12:17:28.037Z,41.04
2023-04-15T12:20:31.362Z,40.56
2023-04-15T12:23:37.806Z,40.00
2023-04-15T12:26:51.184Z,39.52
2023-04-15T12:30:04.766Z,38.79
2023-04-15T12:33:06.353Z,39.14
2023-04-15T12:36:08.316Z,39.19
2023-04-15T12:39:09.826Z,39.98
2023-04-15T12:42:11.899Z,40.62
2023-04-15T12:45:13.516Z,41.05
2023-04-15T12:48:15.051Z,41.19
2023-04-15T12:51:16.498Z,41.45
2023-04-15T12:54:18.724Z,41.72
2023-04-15T12:57:20.223Z,41.95
2023-04-15T13:00:21.909Z,42.04
2023-04-15T13:03:23.469Z,42.07
2023-04-15T13:06:25.204Z,42.31
2023-04-15T13:09:27.009Z,42.41
2023-04-15T13:12:28.609Z,42.32
2023-04-15T13:15:30.177Z,41.82
2023-04-15T13:18:31.808Z,41.49
2023-04-15T13:21:35.507Z,40.95
2023-04-15T13:24:39.224Z,40.04
2023-04-15T13:27:40.768Z,39.47
2023-04-15T13:30:42.950Z,38.70
2023-04-15T13:33:44.487Z,38.74
2023-04-15T13:36:46.048Z,39.09
2023-04-15T13:39:47.529Z,39.11
2023-04-15T13:42:49.012Z,39.30
2023-04-15T13:45:50.647Z,38.97
2023-04-15T13:48:52.193Z,38.36
2023-04-15T13:51:53.726Z,37.76
2023-04-15T13:55:07.889Z,36.96
2023-04-15T13:58:16.746Z,36.82
2023-04-15T14:01:18.270Z,36.37
2023-04-15T14:04:19.958Z,37.40
2023-04-15T14:07:21.651Z,39.70
2023-04-15T14:10:23.155Z,41.95
2023-04-15T14:13:24.881Z,42.36
2023-04-15T14:16:26.551Z,42.30
2023-04-15T14:19:28.217Z,43.40
2023-04-15T14:22:29.692Z,43.76
2023-04-15T14:25:33.983Z,43.58
2023-04-15T14:28:35.919Z,43.25
2023-04-15T14:31:37.957Z,43.40
2023-04-15T14:34:41.007Z,42.66
2023-04-15T14:37:42.572Z,41.94
2023-04-15T14:40:44.730Z,41.25
2023-04-15T14:43:46.202Z,40.69
2023-04-15T14:46:47.739Z,39.66
2023-04-15T14:49:49.242Z,38.97
2023-04-15T14:52:51.026Z,38.78
2023-04-15T14:55:52.561Z,38.64
2023-04-15T14:58:54.171Z,37.48
2023-04-15T15:01:55.786Z,36.99
2023-04-15T15:04:58.015Z,36.86
2023-04-15T15:07:59.658Z,36.19
2023-04-15T15:11:01.179Z,35.95
2023-04-15T15:14:02.647Z,34.76
2023-04-15T15:17:04.252Z,33.93
2023-04-15T15:20:06.387Z,34.35
2023-04-15T15:23:12.624Z,35.41
2023-04-15T15:26:14.396Z,35.97
2023-04-15T15:29:16.016Z,36.23
2023-04-15T15:32:17.684Z,36.32
2023-04-15T15:35:19.731Z,36.24
2023-04-15T15:38:22.552Z,36.53
2023-04-15T15:41:25.432Z,37.75
2023-04-15T15:44:26.863Z,38.16
2023-04-15T15:47:28.503Z,38.27
2023-04-15T15:50:30.129Z,38.03
2023-04-15T15:53:31.581Z,38.17
2023-04-15T15:56:34.368Z,38.08
2023-04-15T15:59:35.917Z,38.29
2023-04-15T16:03:04.187Z,38.29
2023-04-15T16:05:58.882Z,37.81
2023-04-15T16:09:00.438Z,38.03
2023-04-15T16:12:03.314Z,38.11
2023-04-15T16:15:05.490Z,37.95
2023-04-15T16:18:07.143Z,37.70
2023-04-15T16:21:08.815Z,37.84
2023-04-15T16:24:11.069Z,37.89
2023-04-15T16:27:16.113Z,36.46
2023-04-15T16:30:17.730Z,33.59
2023-04-15T16:33:19.305Z,33.92
2023-04-15T16:36:20.827Z,34.88
2023-04-15T16:39:23.960Z,35.56
2023-04-15T16:42:25.490Z,36.85
2023-04-15T16:45:27.011Z,38.05
2023-04-15T16:48:28.444Z,37.05
2023-04-15T16:51:31.493Z,34.70
2023-04-15T16:54:34.923Z,35.01
2023-04-15T16:58:00.501Z,35.99
2023-04-15T17:00:58.970Z,36.75
2023-04-15T17:04:00.616Z,37.76
2023-04-15T17:07:02.167Z,38.55
2023-04-15T17:10:03.864Z,38.95
2023-04-15T17:13:05.456Z,39.67
2023-04-15T17:16:07.265Z,40.36
2023-04-15T17:19:08.850Z,41.63
2023-04-15T17:22:10.609Z,42.47
2023-04-15T17:25:13.929Z,42.90
2023-04-15T17:28:15.430Z,43.47
2023-04-15T17:31:17.021Z,43.99
2023-04-15T17:34:18.657Z,44.41
2023-04-15T17:37:20.346Z,44.35
2023-04-15T17:40:21.978Z,44.62
2023-04-15T17:43:23.666Z,44.86
2023-04-15T17:46:25.426Z,45.03
2023-04-15T17:49:27.352Z,45.58
2023-04-15T17:52:28.967Z,45.58
2023-04-15T17:55:32.231Z,45.81
2023-04-15T17:58:33.742Z,46.26
2023-04-15T18:01:35.293Z,46.29
2023-04-15T18:04:36.923Z,46.28
2023-04-15T18:07:38.530Z,46.54
2023-04-15T18:10:40.174Z,46.61
2023-04-15T18:13:43.633Z,47.45
2023-04-15T18:16:45.591Z,47.61
2023-04-15T18:19:47.280Z,47.87
2023-04-15T18:22:48.879Z,47.96
2023-04-15T18:25:50.549Z,47.99
2023-04-15T18:28:52.032Z,47.99
2023-04-15T18:31:54.501Z,48.23
2023-04-15T18:34:56.638Z,48.32
2023-04-15T18:37:59.034Z,48.64
2023-04-15T18:41:00.862Z,48.32
2023-04-15T18:44:02.660Z,48.38
2023-04-15T18:47:04.532Z,48.86
2023-04-15T18:50:08.210Z,48.80
2023-04-15T18:53:09.766Z,48.98
2023-04-15T18:56:11.535Z,48.60
2023-04-15T18:59:29.659Z,48.99
2023-04-15T19:02:32.289Z,48.99
2023-04-15T19:05:33.964Z,49.42
2023-04-15T19:08:35.574Z,49.45
2023-04-15T19:11:37.341Z,49.40
2023-04-15T19:14:38.934Z,49.38
2023-04-15T19:17:40.610Z,49.48
2023-04-15T19:20:42.071Z,49.92
2023-04-15T19:23:43.738Z,49.86
2023-04-15T19:26:50.241Z,49.95
2023-04-15T19:29:51.797Z,50.06
2023-04-15T19:32:53.325Z,50.20
2023-04-15T19:35:54.997Z,50.46
2023-04-15T19:38:56.661Z,50.46
2023-04-15T19:41:59.005Z,50.68
2023-04-15T19:45:00.683Z,50.72
2023-04-15T19:48:02.534Z,50.65
2023-04-15T19:51:04.196Z,51.21
2023-04-15T19:54:05.844Z,51.64
2023-04-15T19:57:07.388Z,51.84
2023-04-15T20:00:09.708Z,51.84
2023-04-15T20:03:11.376Z,52.95
2023-04-15T20:06:16.757Z,52.46
2023-04-15T20:09:18.245Z,52.94
2023-04-15T20:12:50.487Z,52.37
2023-04-15T20:15:41.439Z,52.26
2023-04-15T20:18:42.944Z,52.68
2023-04-15T20:21:45.353Z,53.63
2023-04-15T20:24:46.794Z,54.11
2023-04-15T20:27:48.253Z,53.08
2023-04-15T20:30:49.765Z,53.30
2023-04-15T20:33:51.361Z,53.00
2023-04-15T20:36:52.891Z,51.92
2023-04-15T20:39:54.334Z,51.87
2023-04-15T20:42:56.242Z,50.88
2023-04-15T20:46:02.161Z,50.65
2023-04-15T20:49:08.453Z,51.69
2023-04-15T20:52:10.011Z,53.20
2023-04-15T20:55:11.526Z,53.55
2023-04-15T20:58:13.045Z,53.32
2023-04-15T21:01:14.764Z,52.97
2023-04-15T21:04:16.462Z,52.86
2023-04-15T21:07:18.041Z,52.80
2023-04-15T21:10:20.371Z,53.07
2023-04-15T21:13:23.035Z,53.28
2023-04-15T21:16:24.843Z,52.78
2023-04-15T21:19:26.599Z,53.35
2023-04-15T21:22:28.116Z,53.11
2023-04-15T21:25:29.575Z,54.14
2023-04-15T21:28:31.119Z,54.48
2023-04-15T21:31:32.762Z,55.32
2023-04-15T21:34:34.549Z,55.87
2023-04-15T21:37:37.539Z,55.84
2023-04-15T21:40:40.653Z,56.54
2023-04-15T21:43:42.180Z,56.36
2023-04-15T21:46:45.989Z,56.78
2023-04-15T21:49:47.676Z,57.13
2023-04-15T21:52:49.281Z,56.93
2023-04-15T21:55:50.860Z,57.36
2023-04-15T21:58:56.837Z,57.77
2023-04-15T22:01:58.720Z,57.97
2023-04-15T22:05:00.414Z,57.59
2023-04-15T22:08:04.650Z,57.81
2023-04-15T22:11:08.161Z,58.32
2023-04-15T22:14:09.662Z,58.32
2023-04-15T22:17:11.208Z,58.64
2023-04-15T22:20:13.345Z,58.75
2023-04-15T22:23:17.428Z,58.65
2023-04-15T22:26:19.222Z,58.71
2023-04-15T22:29:21.382Z,59.12
2023-04-15T22:32:22.889Z,59.17
2023-04-15T22:35:24.353Z,59.37
2023-04-15T22:38:25.937Z,59.41
2023-04-15T22:41:27.463Z,59.57
2023-04-15T22:44:28.923Z,59.70
2023-04-15T22:47:30.687Z,59.89
2023-04-15T22:50:32.131Z,60.18
2023-04-15T22:53:33.889Z,60.21
2023-04-15T22:56:35.683Z,60.70
2023-04-15T22:59:37.168Z,60.76
2023-04-15T23:02:38.839Z,60.23
2023-04-15T23:05:41.088Z,60.63
2023-04-15T23:08:45.130Z,60.91
2023-04-15T23:11:47.377Z,60.79
2023-04-15T23:14:48.892Z,60.68
2023-04-15T23:17:50.410Z,60.46
2023-04-15T23:20:51.882Z,60.42
2023-04-15T23:23:53.554Z,60.56
2023-04-15T23:26:55.124Z,60.60
2023-04-15T23:29:56.671Z,61.00
2023-04-15T23:32:58.322Z,60.98
2023-04-15T23:35:59.893Z,60.71
2023-04-15T23:39:01.492Z,60.77
2023-04-15T23:42:03.579Z,60.69
2023-04-15T23:45:05.491Z,60.99
2023-04-15T23:48:07.080Z,60.99
2023-04-15T23:51:08.579Z,60.82
2023-04-15T23:54:10.056Z,60.89
2023-04-15T23:57:11.504Z,60.89
